BME weather

Broome International Airport
Broome, Western Australia, Australia

Public forecast

Using degrees Celsius for public forecast. Weather courtesy of forecast.io.

METAR (pilot weather report)

Retrieved 2018/02/23 10:00 UTC (12 minutes ago):

YBRM 231000Z AUTO 26010KT 9999 // NCD 29/24 Q1006

TAF (pilot weather forecast)

Retrieved 2018/02/23 06:36 UTC (4 hours ago):

TAF YBRM 230510Z 2306/2406 25005KT 9999 SCT020